sensor_id;sensor_type;location;lat;lon;timestamp;P1;durP1;ratioP1;P2;durP2;ratioP2
75700;SDS011;64321;48.796;44.740;2024-03-02T00:02:56;17.40;;;7.88;;
75700;SDS011;64321;48.796;44.740;2024-03-02T00:07:59;16.92;;;8.65;;
75700;SDS011;64321;48.796;44.740;2024-03-02T00:13:03;16.20;;;7.05;;
75700;SDS011;64321;48.796;44.740;2024-03-02T00:18:06;15.73;;;6.22;;
75700;SDS011;64321;48.796;44.740;2024-03-02T00:23:09;14.02;;;5.50;;
75700;SDS011;64321;48.796;44.740;2024-03-02T00:28:25;8.93;;;5.15;;
75700;SDS011;64321;48.796;44.740;2024-03-02T00:33:32;8.13;;;3.50;;
75700;SDS011;64321;48.796;44.740;2024-03-02T00:38:44;10.25;;;2.72;;
75700;SDS011;64321;48.796;44.740;2024-03-02T00:44:02;11.10;;;3.80;;
75700;SDS011;64321;48.796;44.740;2024-03-02T00:54:09;6.80;;;2.53;;
75700;SDS011;64321;48.796;44.740;2024-03-02T00:59:13;11.38;;;3.40;;
75700;SDS011;64321;48.796;44.740;2024-03-02T01:04:15;7.97;;;2.83;;
75700;SDS011;64321;48.796;44.740;2024-03-02T01:09:18;9.60;;;3.45;;
75700;SDS011;64321;48.796;44.740;2024-03-02T01:14:21;9.30;;;3.92;;
75700;SDS011;64321;48.796;44.740;2024-03-02T01:19:23;8.48;;;3.80;;
75700;SDS011;64321;48.796;44.740;2024-03-02T01:24:26;7.63;;;3.40;;
75700;SDS011;64321;48.796;44.740;2024-03-02T01:29:28;7.55;;;2.58;;
75700;SDS011;64321;48.796;44.740;2024-03-02T01:34:31;9.77;;;3.95;;
75700;SDS011;64321;48.796;44.740;2024-03-02T01:39:33;9.90;;;3.83;;
75700;SDS011;64321;48.796;44.740;2024-03-02T01:44:36;8.07;;;2.80;;
75700;SDS011;64321;48.796;44.740;2024-03-02T01:49:39;5.55;;;2.78;;
75700;SDS011;64321;48.796;44.740;2024-03-02T01:54:43;9.35;;;2.70;;
75700;SDS011;64321;48.796;44.740;2024-03-02T01:59:46;11.70;;;3.30;;
75700;SDS011;64321;48.796;44.740;2024-03-02T02:04:52;7.93;;;2.78;;
75700;SDS011;64321;48.796;44.740;2024-03-02T02:09:55;10.70;;;2.65;;
75700;SDS011;64321;48.796;44.740;2024-03-02T02:14:58;4.82;;;2.05;;
75700;SDS011;64321;48.796;44.740;2024-03-02T02:20:01;11.57;;;3.78;;
75700;SDS011;64321;48.796;44.740;2024-03-02T02:25:03;12.35;;;4.10;;
75700;SDS011;64321;48.796;44.740;2024-03-02T02:30:06;14.18;;;3.58;;
75700;SDS011;64321;48.796;44.740;2024-03-02T02:35:09;9.35;;;3.75;;
75700;SDS011;64321;48.796;44.740;2024-03-02T02:40:12;14.43;;;3.95;;
75700;SDS011;64321;48.796;44.740;2024-03-02T02:45:15;11.82;;;4.47;;
75700;SDS011;64321;48.796;44.740;2024-03-02T02:50:18;12.45;;;3.92;;
75700;SDS011;64321;48.796;44.740;2024-03-02T02:55:21;17.55;;;4.07;;
75700;SDS011;64321;48.796;44.740;2024-03-02T03:00:23;10.38;;;4.47;;
75700;SDS011;64321;48.796;44.740;2024-03-02T03:05:26;9.27;;;3.13;;
75700;SDS011;64321;48.796;44.740;2024-03-02T03:15:31;11.10;;;4.18;;
75700;SDS011;64321;48.796;44.740;2024-03-02T03:20:33;17.42;;;4.15;;
75700;SDS011;64321;48.796;44.740;2024-03-02T03:25:36;9.63;;;4.35;;
75700;SDS011;64321;48.796;44.740;2024-03-02T03:35:41;19.08;;;4.38;;
75700;SDS011;64321;48.796;44.740;2024-03-02T03:40:44;8.57;;;4.78;;
75700;SDS011;64321;48.796;44.740;2024-03-02T03:45:47;13.90;;;4.82;;
75700;SDS011;64321;48.796;44.740;2024-03-02T03:50:49;13.90;;;4.22;;
75700;SDS011;64321;48.796;44.740;2024-03-02T03:55:52;11.40;;;4.78;;
75700;SDS011;64321;48.796;44.740;2024-03-02T04:00:55;12.48;;;4.68;;
75700;SDS011;64321;48.796;44.740;2024-03-02T04:05:57;9.18;;;4.00;;
75700;SDS011;64321;48.796;44.740;2024-03-02T04:11:00;15.88;;;5.45;;
75700;SDS011;64321;48.796;44.740;2024-03-02T04:16:05;14.23;;;5.70;;
75700;SDS011;64321;48.796;44.740;2024-03-02T04:21:07;15.65;;;8.70;;
75700;SDS011;64321;48.796;44.740;2024-03-02T04:31:12;16.95;;;6.53;;
75700;SDS011;64321;48.796;44.740;2024-03-02T04:36:15;16.13;;;8.65;;
75700;SDS011;64321;48.796;44.740;2024-03-02T04:46:20;24.48;;;8.80;;
75700;SDS011;64321;48.796;44.740;2024-03-02T04:51:23;16.38;;;8.07;;
75700;SDS011;64321;48.796;44.740;2024-03-02T05:01:33;20.02;;;7.80;;
75700;SDS011;64321;48.796;44.740;2024-03-02T05:06:36;16.80;;;6.75;;
75700;SDS011;64321;48.796;44.740;2024-03-02T05:11:38;16.60;;;6.13;;
75700;SDS011;64321;48.796;44.740;2024-03-02T05:16:41;13.82;;;5.05;;
75700;SDS011;64321;48.796;44.740;2024-03-02T05:21:44;12.40;;;4.20;;
75700;SDS011;64321;48.796;44.740;2024-03-02T05:26:46;15.00;;;4.07;;
75700;SDS011;64321;48.796;44.740;2024-03-02T05:31:49;8.30;;;4.32;;
75700;SDS011;64321;48.796;44.740;2024-03-02T05:36:51;15.10;;;4.88;;
75700;SDS011;64321;48.796;44.740;2024-03-02T05:41:54;16.75;;;6.68;;
75700;SDS011;64321;48.796;44.740;2024-03-02T05:46:57;13.27;;;5.32;;
75700;SDS011;64321;48.796;44.740;2024-03-02T05:51:59;11.23;;;3.22;;
75700;SDS011;64321;48.796;44.740;2024-03-02T05:57:01;9.75;;;3.40;;
75700;SDS011;64321;48.796;44.740;2024-03-02T06:02:19;16.73;;;5.57;;
75700;SDS011;64321;48.796;44.740;2024-03-02T06:07:22;12.50;;;4.78;;
75700;SDS011;64321;48.796;44.740;2024-03-02T06:12:24;14.27;;;5.35;;
75700;SDS011;64321;48.796;44.740;2024-03-02T06:17:27;11.27;;;4.85;;
75700;SDS011;64321;48.796;44.740;2024-03-02T06:22:29;19.38;;;6.63;;
75700;SDS011;64321;48.796;44.740;2024-03-02T06:27:32;20.33;;;7.63;;
75700;SDS011;64321;48.796;44.740;2024-03-02T06:32:34;19.90;;;6.38;;
75700;SDS011;64321;48.796;44.740;2024-03-02T06:37:37;14.20;;;5.60;;
75700;SDS011;64321;48.796;44.740;2024-03-02T06:42:42;14.18;;;5.95;;
75700;SDS011;64321;48.796;44.740;2024-03-02T06:47:45;8.30;;;3.60;;
75700;SDS011;64321;48.796;44.740;2024-03-02T06:52:48;10.77;;;5.38;;
75700;SDS011;64321;48.796;44.740;2024-03-02T06:57:50;13.07;;;5.70;;
75700;SDS011;64321;48.796;44.740;2024-03-02T07:02:54;11.00;;;4.63;;
75700;SDS011;64321;48.796;44.740;2024-03-02T07:07:56;11.40;;;4.57;;
75700;SDS011;64321;48.796;44.740;2024-03-02T07:12:59;9.93;;;3.78;;
75700;SDS011;64321;48.796;44.740;2024-03-02T07:18:02;14.02;;;5.22;;
75700;SDS011;64321;48.796;44.740;2024-03-02T07:23:05;10.57;;;4.07;;
75700;SDS011;64321;48.796;44.740;2024-03-02T07:28:08;12.48;;;5.13;;
75700;SDS011;64321;48.796;44.740;2024-03-02T07:33:10;15.23;;;5.40;;
75700;SDS011;64321;48.796;44.740;2024-03-02T07:38:13;13.38;;;5.43;;
75700;SDS011;64321;48.796;44.740;2024-03-02T07:43:16;12.25;;;4.13;;
75700;SDS011;64321;48.796;44.740;2024-03-02T07:48:19;13.13;;;5.20;;
75700;SDS011;64321;48.796;44.740;2024-03-02T07:53:21;9.90;;;3.47;;
75700;SDS011;64321;48.796;44.740;2024-03-02T07:58:24;13.88;;;4.07;;
75700;SDS011;64321;48.796;44.740;2024-03-02T08:03:26;11.40;;;4.13;;
75700;SDS011;64321;48.796;44.740;2024-03-02T08:08:29;8.52;;;3.75;;
75700;SDS011;64321;48.796;44.740;2024-03-02T08:13:32;10.85;;;4.38;;
75700;SDS011;64321;48.796;44.740;2024-03-02T08:18:34;9.98;;;3.80;;
75700;SDS011;64321;48.796;44.740;2024-03-02T08:23:37;11.48;;;4.03;;
75700;SDS011;64321;48.796;44.740;2024-03-02T08:28:42;14.93;;;3.60;;
75700;SDS011;64321;48.796;44.740;2024-03-02T08:33:45;6.35;;;2.65;;
75700;SDS011;64321;48.796;44.740;2024-03-02T08:38:48;10.07;;;2.33;;
75700;SDS011;64321;48.796;44.740;2024-03-02T08:43:52;8.60;;;2.15;;
75700;SDS011;64321;48.796;44.740;2024-03-02T08:48:54;7.53;;;2.47;;
75700;SDS011;64321;48.796;44.740;2024-03-02T08:53:57;3.78;;;1.60;;
75700;SDS011;64321;48.796;44.740;2024-03-02T08:59:00;5.25;;;1.80;;
75700;SDS011;64321;48.796;44.740;2024-03-02T09:04:02;4.70;;;1.73;;
75700;SDS011;64321;48.796;44.740;2024-03-02T09:09:05;3.83;;;2.42;;
75700;SDS011;64321;48.796;44.740;2024-03-02T09:14:08;10.10;;;3.88;;
75700;SDS011;64321;48.796;44.740;2024-03-02T09:19:11;11.93;;;5.15;;
75700;SDS011;64321;48.796;44.740;2024-03-02T09:24:13;10.75;;;4.78;;
75700;SDS011;64321;48.796;44.740;2024-03-02T09:29:19;8.80;;;3.83;;
75700;SDS011;64321;48.796;44.740;2024-03-02T09:34:22;9.15;;;3.70;;
75700;SDS011;64321;48.796;44.740;2024-03-02T09:39:25;4.53;;;2.08;;
75700;SDS011;64321;48.796;44.740;2024-03-02T09:44:29;6.20;;;2.45;;
75700;SDS011;64321;48.796;44.740;2024-03-02T09:49:31;6.93;;;3.05;;
75700;SDS011;64321;48.796;44.740;2024-03-02T09:54:34;7.38;;;2.47;;
75700;SDS011;64321;48.796;44.740;2024-03-02T09:59:37;6.25;;;2.42;;
75700;SDS011;64321;48.796;44.740;2024-03-02T10:04:39;5.57;;;1.23;;
75700;SDS011;64321;48.796;44.740;2024-03-02T10:09:42;7.70;;;1.38;;
75700;SDS011;64321;48.796;44.740;2024-03-02T10:14:47;9.05;;;1.48;;
75700;SDS011;64321;48.796;44.740;2024-03-02T10:19:50;3.85;;;0.80;;
75700;SDS011;64321;48.796;44.740;2024-03-02T10:24:53;4.18;;;0.55;;
75700;SDS011;64321;48.796;44.740;2024-03-02T10:30:00;2.90;;;1.02;;
75700;SDS011;64321;48.796;44.740;2024-03-02T10:35:05;2.55;;;0.90;;
75700;SDS011;64321;48.796;44.740;2024-03-02T10:40:10;3.40;;;1.27;;
75700;SDS011;64321;48.796;44.740;2024-03-02T10:45:14;6.53;;;1.00;;
75700;SDS011;64321;48.796;44.740;2024-03-02T10:50:18;4.00;;;0.77;;
75700;SDS011;64321;48.796;44.740;2024-03-02T10:55:20;1.70;;;0.70;;
75700;SDS011;64321;48.796;44.740;2024-03-02T11:00:26;2.88;;;0.80;;
75700;SDS011;64321;48.796;44.740;2024-03-02T11:05:37;6.28;;;0.95;;
75700;SDS011;64321;48.796;44.740;2024-03-02T11:10:44;4.55;;;1.48;;
75700;SDS011;64321;48.796;44.740;2024-03-02T11:15:58;4.30;;;1.13;;
75700;SDS011;64321;48.796;44.740;2024-03-02T11:21:06;3.13;;;1.15;;
75700;SDS011;64321;48.796;44.740;2024-03-02T11:26:21;3.78;;;1.05;;
75700;SDS011;64321;48.796;44.740;2024-03-02T11:31:55;2.47;;;0.90;;
75700;SDS011;64321;48.796;44.740;2024-03-02T11:37:04;1.90;;;1.02;;
75700;SDS011;64321;48.796;44.740;2024-03-02T11:42:07;2.58;;;0.82;;
75700;SDS011;64321;48.796;44.740;2024-03-02T11:47:14;2.20;;;0.80;;
75700;SDS011;64321;48.796;44.740;2024-03-02T11:52:18;3.50;;;1.63;;
75700;SDS011;64321;48.796;44.740;2024-03-02T11:57:21;4.43;;;1.40;;
75700;SDS011;64321;48.796;44.740;2024-03-02T12:02:29;3.35;;;0.80;;
75700;SDS011;64321;48.796;44.740;2024-03-02T12:07:32;4.28;;;1.00;;
75700;SDS011;64321;48.796;44.740;2024-03-02T12:12:34;2.72;;;0.80;;
75700;SDS011;64321;48.796;44.740;2024-03-02T12:17:37;2.60;;;0.82;;
75700;SDS011;64321;48.796;44.740;2024-03-02T12:22:40;1.80;;;0.75;;
75700;SDS011;64321;48.796;44.740;2024-03-02T12:27:42;2.53;;;0.77;;
75700;SDS011;64321;48.796;44.740;2024-03-02T12:32:46;7.03;;;2.10;;
75700;SDS011;64321;48.796;44.740;2024-03-02T12:37:50;6.32;;;2.17;;
75700;SDS011;64321;48.796;44.740;2024-03-02T12:42:55;3.80;;;1.25;;
75700;SDS011;64321;48.796;44.740;2024-03-02T12:47:59;3.90;;;1.38;;
75700;SDS011;64321;48.796;44.740;2024-03-02T12:53:03;3.63;;;1.17;;
75700;SDS011;64321;48.796;44.740;2024-03-02T12:58:06;1.83;;;0.93;;
75700;SDS011;64321;48.796;44.740;2024-03-02T13:03:09;4.05;;;0.70;;
75700;SDS011;64321;48.796;44.740;2024-03-02T13:08:14;1.33;;;0.60;;
75700;SDS011;64321;48.796;44.740;2024-03-02T13:13:17;1.50;;;0.63;;
75700;SDS011;64321;48.796;44.740;2024-03-02T13:18:19;1.95;;;0.85;;
75700;SDS011;64321;48.796;44.740;2024-03-02T13:23:22;3.22;;;1.73;;
75700;SDS011;64321;48.796;44.740;2024-03-02T13:28:25;2.47;;;1.02;;
75700;SDS011;64321;48.796;44.740;2024-03-02T13:33:27;1.63;;;0.63;;
75700;SDS011;64321;48.796;44.740;2024-03-02T13:38:32;3.90;;;0.88;;
75700;SDS011;64321;48.796;44.740;2024-03-02T13:43:34;4.95;;;1.05;;
75700;SDS011;64321;48.796;44.740;2024-03-02T13:48:39;4.03;;;0.90;;
75700;SDS011;64321;48.796;44.740;2024-03-02T13:53:42;1.67;;;0.60;;
75700;SDS011;64321;48.796;44.740;2024-03-02T13:58:44;2.60;;;0.65;;
75700;SDS011;64321;48.796;44.740;2024-03-02T14:03:48;3.30;;;1.25;;
75700;SDS011;64321;48.796;44.740;2024-03-02T14:08:50;3.67;;;1.60;;
75700;SDS011;64321;48.796;44.740;2024-03-02T14:13:53;5.35;;;1.70;;
75700;SDS011;64321;48.796;44.740;2024-03-02T14:18:56;4.22;;;1.45;;
75700;SDS011;64321;48.796;44.740;2024-03-02T14:23:59;3.70;;;1.23;;
75700;SDS011;64321;48.796;44.740;2024-03-02T14:29:03;3.25;;;1.02;;
75700;SDS011;64321;48.796;44.740;2024-03-02T14:34:06;5.80;;;2.40;;
75700;SDS011;64321;48.796;44.740;2024-03-02T14:39:09;5.53;;;1.42;;
75700;SDS011;64321;48.796;44.740;2024-03-02T14:44:12;4.03;;;1.42;;
75700;SDS011;64321;48.796;44.740;2024-03-02T14:49:14;8.90;;;2.92;;
75700;SDS011;64321;48.796;44.740;2024-03-02T14:54:17;8.23;;;3.05;;
75700;SDS011;64321;48.796;44.740;2024-03-02T14:59:19;7.10;;;2.60;;
75700;SDS011;64321;48.796;44.740;2024-03-02T15:04:22;6.90;;;2.20;;
75700;SDS011;64321;48.796;44.740;2024-03-02T15:09:25;8.77;;;2.85;;
75700;SDS011;64321;48.796;44.740;2024-03-02T15:14:27;6.43;;;1.83;;
75700;SDS011;64321;48.796;44.740;2024-03-02T15:19:30;3.97;;;1.17;;
75700;SDS011;64321;48.796;44.740;2024-03-02T15:24:33;2.90;;;0.85;;
75700;SDS011;64321;48.796;44.740;2024-03-02T15:29:35;4.22;;;1.20;;
75700;SDS011;64321;48.796;44.740;2024-03-02T15:34:38;3.85;;;1.42;;
75700;SDS011;64321;48.796;44.740;2024-03-02T15:39:41;4.63;;;1.58;;
75700;SDS011;64321;48.796;44.740;2024-03-02T15:44:46;5.15;;;1.45;;
75700;SDS011;64321;48.796;44.740;2024-03-02T15:49:48;4.47;;;1.33;;
75700;SDS011;64321;48.796;44.740;2024-03-02T15:54:51;9.10;;;2.80;;
75700;SDS011;64321;48.796;44.740;2024-03-02T15:59:54;8.63;;;2.85;;
75700;SDS011;64321;48.796;44.740;2024-03-02T16:04:58;8.20;;;2.75;;
75700;SDS011;64321;48.796;44.740;2024-03-02T16:10:00;7.25;;;2.00;;
75700;SDS011;64321;48.796;44.740;2024-03-02T16:15:06;5.18;;;2.05;;
75700;SDS011;64321;48.796;44.740;2024-03-02T16:20:11;3.70;;;1.15;;
75700;SDS011;64321;48.796;44.740;2024-03-02T16:25:13;6.00;;;1.88;;
75700;SDS011;64321;48.796;44.740;2024-03-02T16:30:16;4.85;;;1.25;;
75700;SDS011;64321;48.796;44.740;2024-03-02T16:35:20;6.75;;;1.42;;
75700;SDS011;64321;48.796;44.740;2024-03-02T16:40:23;4.85;;;1.52;;
75700;SDS011;64321;48.796;44.740;2024-03-02T16:45:25;5.95;;;1.50;;
75700;SDS011;64321;48.796;44.740;2024-03-02T16:50:28;4.75;;;1.50;;
75700;SDS011;64321;48.796;44.740;2024-03-02T16:55:31;5.00;;;2.38;;
75700;SDS011;64321;48.796;44.740;2024-03-02T17:00:33;3.35;;;1.45;;
75700;SDS011;64321;48.796;44.740;2024-03-02T17:05:36;5.57;;;1.63;;
75700;SDS011;64321;48.796;44.740;2024-03-02T17:10:39;5.38;;;1.08;;
75700;SDS011;64321;48.796;44.740;2024-03-02T17:15:42;4.18;;;1.17;;
75700;SDS011;64321;48.796;44.740;2024-03-02T17:20:45;5.68;;;1.10;;
75700;SDS011;64321;48.796;44.740;2024-03-02T17:25:47;3.45;;;1.17;;
75700;SDS011;64321;48.796;44.740;2024-03-02T17:30:53;4.53;;;1.08;;
75700;SDS011;64321;48.796;44.740;2024-03-02T17:35:56;2.88;;;0.90;;
75700;SDS011;64321;48.796;44.740;2024-03-02T17:40:59;3.42;;;0.82;;
75700;SDS011;64321;48.796;44.740;2024-03-02T17:46:02;2.97;;;0.68;;
75700;SDS011;64321;48.796;44.740;2024-03-02T17:51:06;4.70;;;0.50;;
75700;SDS011;64321;48.796;44.740;2024-03-02T17:56:10;2.10;;;0.73;;
75700;SDS011;64321;48.796;44.740;2024-03-02T18:01:13;3.33;;;0.40;;
75700;SDS011;64321;48.796;44.740;2024-03-02T18:06:17;2.10;;;0.50;;
75700;SDS011;64321;48.796;44.740;2024-03-02T18:11:20;5.07;;;1.20;;
75700;SDS011;64321;48.796;44.740;2024-03-02T18:16:26;3.75;;;0.95;;
75700;SDS011;64321;48.796;44.740;2024-03-02T18:21:29;4.78;;;1.45;;
75700;SDS011;64321;48.796;44.740;2024-03-02T18:26:31;6.30;;;1.25;;
75700;SDS011;64321;48.796;44.740;2024-03-02T18:31:36;6.15;;;2.20;;
75700;SDS011;64321;48.796;44.740;2024-03-02T18:36:39;4.55;;;1.00;;
75700;SDS011;64321;48.796;44.740;2024-03-02T18:41:41;3.72;;;1.05;;
75700;SDS011;64321;48.796;44.740;2024-03-02T18:46:44;3.83;;;1.00;;
75700;SDS011;64321;48.796;44.740;2024-03-02T18:51:49;4.63;;;0.80;;
75700;SDS011;64321;48.796;44.740;2024-03-02T18:56:52;2.88;;;0.70;;
75700;SDS011;64321;48.796;44.740;2024-03-02T19:01:55;5.07;;;0.82;;
75700;SDS011;64321;48.796;44.740;2024-03-02T19:06:57;2.45;;;0.73;;
75700;SDS011;64321;48.796;44.740;2024-03-02T19:12:00;7.97;;;1.38;;
75700;SDS011;64321;48.796;44.740;2024-03-02T19:17:03;6.22;;;1.17;;
75700;SDS011;64321;48.796;44.740;2024-03-02T19:22:06;2.90;;;0.98;;
75700;SDS011;64321;48.796;44.740;2024-03-02T19:27:13;5.78;;;1.10;;
75700;SDS011;64321;48.796;44.740;2024-03-02T19:32:15;6.13;;;2.13;;
75700;SDS011;64321;48.796;44.740;2024-03-02T19:37:22;3.22;;;1.00;;
75700;SDS011;64321;48.796;44.740;2024-03-02T19:42:25;6.38;;;1.08;;
75700;SDS011;64321;48.796;44.740;2024-03-02T19:47:28;3.15;;;0.75;;
75700;SDS011;64321;48.796;44.740;2024-03-02T19:57:39;5.68;;;0.95;;
75700;SDS011;64321;48.796;44.740;2024-03-02T20:02:51;6.40;;;0.80;;
75700;SDS011;64321;48.796;44.740;2024-03-02T20:08:13;4.70;;;0.90;;
75700;SDS011;64321;48.796;44.740;2024-03-02T20:13:16;3.97;;;0.85;;
75700;SDS011;64321;48.796;44.740;2024-03-02T20:18:18;5.68;;;0.85;;
75700;SDS011;64321;48.796;44.740;2024-03-02T20:23:21;2.70;;;0.88;;
75700;SDS011;64321;48.796;44.740;2024-03-02T20:28:24;3.60;;;0.93;;
75700;SDS011;64321;48.796;44.740;2024-03-02T20:33:27;2.33;;;1.02;;
75700;SDS011;64321;48.796;44.740;2024-03-02T20:38:29;2.55;;;0.85;;
75700;SDS011;64321;48.796;44.740;2024-03-02T20:43:32;3.45;;;1.10;;
75700;SDS011;64321;48.796;44.740;2024-03-02T20:48:37;3.10;;;1.02;;
75700;SDS011;64321;48.796;44.740;2024-03-02T20:53:41;5.15;;;1.27;;
75700;SDS011;64321;48.796;44.740;2024-03-02T20:58:43;11.30;;;1.38;;
75700;SDS011;64321;48.796;44.740;2024-03-02T21:03:47;4.18;;;1.52;;
75700;SDS011;64321;48.796;44.740;2024-03-02T21:08:49;2.83;;;0.52;;
75700;SDS011;64321;48.796;44.740;2024-03-02T21:13:52;4.68;;;1.20;;
75700;SDS011;64321;48.796;44.740;2024-03-02T21:18:56;3.08;;;1.00;;
75700;SDS011;64321;48.796;44.740;2024-03-02T21:23:58;3.80;;;0.88;;
75700;SDS011;64321;48.796;44.740;2024-03-02T21:29:01;3.33;;;1.02;;
75700;SDS011;64321;48.796;44.740;2024-03-02T21:34:05;4.10;;;1.02;;
75700;SDS011;64321;48.796;44.740;2024-03-02T21:39:09;2.88;;;1.33;;
75700;SDS011;64321;48.796;44.740;2024-03-02T21:44:12;3.53;;;0.98;;
75700;SDS011;64321;48.796;44.740;2024-03-02T21:49:14;3.92;;;1.60;;
75700;SDS011;64321;48.796;44.740;2024-03-02T21:54:17;3.28;;;1.20;;
75700;SDS011;64321;48.796;44.740;2024-03-02T21:59:20;3.75;;;1.20;;
75700;SDS011;64321;48.796;44.740;2024-03-02T22:04:22;5.45;;;2.05;;
75700;SDS011;64321;48.796;44.740;2024-03-02T22:09:25;3.13;;;1.05;;
75700;SDS011;64321;48.796;44.740;2024-03-02T22:14:27;5.13;;;1.67;;
75700;SDS011;64321;48.796;44.740;2024-03-02T22:19:30;3.10;;;1.10;;
75700;SDS011;64321;48.796;44.740;2024-03-02T22:24:33;4.22;;;1.67;;
75700;SDS011;64321;48.796;44.740;2024-03-02T22:29:35;4.25;;;1.20;;
75700;SDS011;64321;48.796;44.740;2024-03-02T22:34:38;6.10;;;1.83;;
75700;SDS011;64321;48.796;44.740;2024-03-02T22:39:41;4.80;;;1.55;;
75700;SDS011;64321;48.796;44.740;2024-03-02T22:44:43;3.50;;;1.30;;
75700;SDS011;64321;48.796;44.740;2024-03-02T22:49:46;2.55;;;1.20;;
75700;SDS011;64321;48.796;44.740;2024-03-02T22:54:48;4.60;;;2.10;;
75700;SDS011;64321;48.796;44.740;2024-03-02T22:59:51;7.68;;;1.50;;
75700;SDS011;64321;48.796;44.740;2024-03-02T23:04:53;4.72;;;1.73;;
75700;SDS011;64321;48.796;44.740;2024-03-02T23:09:56;3.53;;;0.93;;
75700;SDS011;64321;48.796;44.740;2024-03-02T23:14:59;5.55;;;1.38;;
75700;SDS011;64321;48.796;44.740;2024-03-02T23:20:01;4.78;;;2.00;;
75700;SDS011;64321;48.796;44.740;2024-03-02T23:25:04;4.38;;;1.60;;
75700;SDS011;64321;48.796;44.740;2024-03-02T23:30:08;4.50;;;1.60;;
75700;SDS011;64321;48.796;44.740;2024-03-02T23:35:12;7.53;;;2.08;;
75700;SDS011;64321;48.796;44.740;2024-03-02T23:40:14;5.88;;;2.03;;
75700;SDS011;64321;48.796;44.740;2024-03-02T23:45:18;4.10;;;1.58;;
75700;SDS011;64321;48.796;44.740;2024-03-02T23:50:21;5.45;;;1.50;;
75700;SDS011;64321;48.796;44.740;2024-03-02T23:55:24;6.22;;;2.60;;
